Time;durP1;ratioP1;P1;durP2;ratioP2;P2;SDS_P1;SDS_P2;PMS_P1;PMS_P2;Temp;Humidity;BMP_temperature;BMP_pressure;BME280_temperature;BME280_humidity;BME280_pressure;Samples;Min_cycle;Max_cycle;Signal;HPM_P1;HPM_P2
2023/07/10 00:00:18;;;;;;;33.13;28.42;;;19.10;99.90;;;;;;5115878;27;20035;-41
2023/07/10 00:02:44;;;;;;;34.00;27.80;;;19.10;99.90;;;;;;5097547;27;20990;-40
2023/07/10 00:05:14;;;;;;;32.47;28.77;;;19.10;99.90;;;;;;5115134;27;20062;-41
2023/07/10 00:07:41;;;;;;;30.25;27.00;;;19.10;99.90;;;;;;5115760;27;20043;-41
2023/07/10 00:10:13;;;;;;;35.47;29.55;;;19.10;99.90;;;;;;5114790;27;20047;-41
2023/07/10 00:12:41;;;;;;;33.60;27.42;;;19.10;99.90;;;;;;5096857;27;20043;-40
2023/07/10 00:15:14;;;;;;;32.72;29.27;;;19.00;99.90;;;;;;5114847;27;20080;-41
2023/07/10 00:17:40;;;;;;;35.33;29.38;;;19.00;99.90;;;;;;5115378;27;20042;-40
2023/07/10 00:20:13;;;;;;;29.15;26.00;;;19.00;99.90;;;;;;5114540;27;20096;-42
2023/07/10 00:22:39;;;;;;;31.65;28.05;;;18.90;99.90;;;;;;5115228;27;20480;-40
2023/07/10 00:25:05;;;;;;;28.15;22.90;;;18.90;99.90;;;;;;5096249;27;20069;-41
2023/07/10 00:27:32;;;;;;;30.40;25.90;;;18.90;99.90;;;;;;5115822;27;20096;-43
2023/07/10 00:29:58;;;;;;;30.40;27.20;;;18.80;99.90;;;;;;5114664;27;20047;-42
2023/07/10 00:32:24;;;;;;;28.23;25.27;;;18.80;99.90;;;;;;5115906;27;20064;-43
2023/07/10 00:34:49;;;;;;;27.70;24.92;;;18.70;99.90;;;;;;5106309;27;20050;-40
2023/07/10 00:37:15;;;;;;;27.35;24.27;;;18.70;99.90;;;;;;5113573;27;20400;-40
2023/07/10 00:39:43;;;;;;;26.48;23.63;;;18.70;99.90;;;;;;5115496;27;20054;-40
2023/07/10 00:42:20;;;;;;;27.88;24.95;;;18.60;99.90;;;;;;5118041;27;20136;-40
2023/07/10 00:44:54;;;;;;;31.17;25.58;;;18.60;99.90;;;;;;5102049;27;20047;-39
2023/07/10 00:47:31;;;;;;;27.02;24.08;;;18.50;99.90;;;;;;5115792;27;20111;-40
2023/07/10 00:50:08;;;;;;;30.52;26.23;;;18.50;99.90;;;;;;5114456;27;20058;-42
2023/07/10 00:52:43;;;;;;;29.30;26.10;;;18.50;99.90;;;;;;5097183;28;20131;-40
2023/07/10 00:55:18;;;;;;;30.58;27.45;;;18.40;99.90;;;;;;5125727;27;20089;-41
2023/07/10 00:57:48;;;;;;;26.77;23.98;;;18.40;99.90;;;;;;5136148;27;20114;-40
2023/07/10 01:00:20;;;;;;;30.17;26.50;;;18.50;99.90;;;;;;5090413;27;20051;-42
2023/07/10 01:02:47;;;;;;;26.95;24.13;;;18.50;99.90;;;;;;5109621;27;20117;-40
2023/07/10 01:05:13;;;;;;;30.02;25.88;;;18.50;99.90;;;;;;5136051;27;20042;-41
2023/07/10 01:07:46;;;;;;;27.30;24.58;;;18.50;99.90;;;;;;5100201;27;20080;-41
2023/07/10 01:10:12;;;;;;;26.65;23.77;;;18.50;99.90;;;;;;5135317;27;20121;-41
2023/07/10 01:12:40;;;;;;;26.50;23.88;;;18.50;99.90;;;;;;5109259;28;20413;-42
2023/07/10 01:15:07;;;;;;;28.50;25.50;;;18.60;99.90;;;;;;5113759;27;20047;-40
2023/07/10 01:17:34;;;;;;;29.83;26.70;;;18.50;99.90;;;;;;5113834;27;20054;-41
2023/07/10 01:20:19;;;;;;;25.50;23.05;;;18.50;99.90;;;;;;5114224;27;20097;-40
2023/07/10 01:22:45;;;;;;;27.08;24.48;;;18.50;99.90;;;;;;5080282;28;20058;-42
2023/07/10 01:25:10;;;;;;;26.30;23.80;;;18.50;99.90;;;;;;5113660;27;20043;-40
2023/07/10 01:27:36;;;;;;;26.13;23.42;;;18.60;99.90;;;;;;5115334;27;20058;-39
2023/07/10 01:30:23;;;;;;;27.45;24.48;;;18.50;99.90;;;;;;5114127;27;20043;-40
2023/07/10 01:32:51;;;;;;;25.63;23.08;;;18.50;99.90;;;;;;5115180;27;20313;-41
2023/07/10 01:35:17;;;;;;;29.45;26.50;;;18.50;99.90;;;;;;5070483;28;20182;-40
2023/07/10 01:37:43;;;;;;;29.23;26.33;;;18.50;99.90;;;;;;5092249;27;20048;-41
2023/07/10 01:40:16;;;;;;;29.60;26.58;;;18.40;99.90;;;;;;5113846;27;20047;-40
2023/07/10 01:42:42;;;;;;;25.45;23.05;;;18.40;99.90;;;;;;5113478;27;20039;-42
2023/07/10 01:45:13;;;;;;;28.80;25.88;;;18.40;99.90;;;;;;5110048;27;20058;-41
2023/07/10 01:47:38;;;;;;;26.02;23.52;;;18.40;99.90;;;;;;5135086;27;20385;-40
2023/07/10 01:50:04;;;;;;;30.85;27.48;;;18.40;99.90;;;;;;5134273;27;20099;-42
2023/07/10 01:52:30;;;;;;;25.25;22.88;;;18.40;99.90;;;;;;5121448;27;20043;-40
2023/07/10 01:54:56;;;;;;;28.52;26.00;;;18.30;99.90;;;;;;5097437;28;20235;-40
2023/07/10 01:57:23;;;;;;;30.02;26.95;;;18.40;99.90;;;;;;5127661;27;20567;-41
2023/07/10 01:59:50;;;;;;;30.65;27.63;;;18.30;99.90;;;;;;5124446;27;20139;-42
2023/07/10 02:02:15;;;;;;;28.67;25.73;;;18.40;99.90;;;;;;5108396;27;20142;-42
2023/07/10 02:04:41;;;;;;;26.65;23.75;;;18.30;99.90;;;;;;5111923;27;20051;-40
2023/07/10 02:07:06;;;;;;;30.25;27.02;;;18.30;99.90;;;;;;5114825;27;20695;-41
2023/07/10 02:09:32;;;;;;;29.67;26.95;;;18.30;99.90;;;;;;5117802;27;20089;-42
2023/07/10 02:11:59;;;;;;;25.60;23.27;;;18.30;99.90;;;;;;5117223;27;20086;-41
2023/07/10 02:14:25;;;;;;;27.90;25.27;;;18.20;99.90;;;;;;5117759;27;20538;-41
2023/07/10 02:16:50;;;;;;;26.10;23.63;;;18.30;99.90;;;;;;5118123;27;20051;-41
2023/07/10 02:19:17;;;;;;;26.00;23.33;;;18.30;99.90;;;;;;5117101;27;20047;-41
2023/07/10 02:21:43;;;;;;;26.20;23.70;;;18.30;99.90;;;;;;5117564;27;20594;-41
2023/07/10 02:24:09;;;;;;;26.05;23.38;;;18.30;99.90;;;;;;5117642;27;20096;-43
2023/07/10 02:26:35;;;;;;;22.52;20.42;;;18.30;99.90;;;;;;5117819;27;20159;-41
2023/07/10 02:29:01;;;;;;;23.98;21.23;;;18.30;99.90;;;;;;5117484;27;20425;-40
2023/07/10 02:31:27;;;;;;;23.95;21.55;;;18.30;99.90;;;;;;5117575;27;20051;-42
2023/07/10 02:33:53;;;;;;;22.60;20.02;;;18.40;99.90;;;;;;5116700;27;20071;-40
2023/07/10 02:36:21;;;;;;;22.55;18.73;;;18.30;99.90;;;;;;5109400;27;20058;-42
2023/07/10 02:38:47;;;;;;;19.00;16.98;;;18.30;99.90;;;;;;5123473;27;20058;-40
2023/07/10 02:41:12;;;;;;;22.10;17.75;;;18.30;99.90;;;;;;5137700;27;20226;-40
2023/07/10 02:43:38;;;;;;;19.42;17.08;;;18.30;99.90;;;;;;5118846;27;20776;-40
2023/07/10 02:46:04;;;;;;;16.63;14.60;;;18.30;99.90;;;;;;5112601;27;20395;-41
2023/07/10 02:48:29;;;;;;;18.17;16.17;;;18.20;99.90;;;;;;5098408;27;20055;-40
2023/07/10 02:50:55;;;;;;;18.25;14.57;;;18.20;99.90;;;;;;5117560;27;20602;-41
2023/07/10 02:53:24;;;;;;;24.23;14.05;;;18.10;99.90;;;;;;5117073;27;20092;-42
2023/07/10 02:55:49;;;;;;;13.60;12.20;;;18.10;99.90;;;;;;5117261;27;20051;-41
2023/07/10 02:58:16;;;;;;;13.15;11.98;;;18.10;99.90;;;;;;5116598;27;20397;-40
2023/07/10 03:00:42;;;;;;;13.48;11.00;;;18.00;99.90;;;;;;5098213;27;20047;-42
2023/07/10 03:03:07;;;;;;;14.93;11.32;;;18.00;99.90;;;;;;5097767;27;20472;-40
2023/07/10 03:05:33;;;;;;;14.40;10.90;;;18.00;99.90;;;;;;5119396;27;20062;-41
2023/07/10 03:07:59;;;;;;;14.52;12.00;;;17.90;99.90;;;;;;5137744;27;20090;-42
2023/07/10 03:10:25;;;;;;;12.10;10.30;;;17.80;99.90;;;;;;5134023;27;20051;-42
2023/07/10 03:12:50;;;;;;;11.00;9.55;;;17.70;99.90;;;;;;5117144;27;20039;-41
2023/07/10 03:15:16;;;;;;;9.27;8.25;;;17.70;99.90;;;;;;5116338;27;20039;-43
2023/07/10 03:17:42;;;;;;;9.35;8.20;;;17.60;99.90;;;;;;5114262;27;20516;-41
2023/07/10 03:20:10;;;;;;;11.07;8.93;;;17.60;99.90;;;;;;5115606;27;20577;-44
2023/07/10 03:22:35;;;;;;;8.35;7.60;;;17.60;99.90;;;;;;5116282;27;20404;-41
2023/07/10 03:25:01;;;;;;;12.32;8.27;;;17.60;99.90;;;;;;5115993;27;20039;-40
2023/07/10 03:27:27;;;;;;;9.27;8.23;;;17.60;99.90;;;;;;5117002;27;20039;-42
2023/07/10 03:29:53;;;;;;;8.77;6.53;;;17.60;99.90;;;;;;5116262;27;20406;-40
2023/07/10 03:32:19;;;;;;;6.38;5.78;;;17.60;99.90;;;;;;5116643;27;20042;-43
2023/07/10 03:34:45;;;;;;;8.52;5.60;;;17.60;99.90;;;;;;5090134;27;20070;-41
2023/07/10 03:37:11;;;;;;;8.05;5.85;;;17.60;99.90;;;;;;5114273;27;20401;-40
2023/07/10 03:39:36;;;;;;;6.95;4.50;;;17.60;99.90;;;;;;5112177;27;20047;-41
2023/07/10 03:42:03;;;;;;;6.15;4.63;;;17.50;99.90;;;;;;5116281;27;20397;-43
2023/07/10 03:44:28;;;;;;;8.32;5.00;;;17.60;99.90;;;;;;5104630;27;20055;-41
2023/07/10 03:46:54;;;;;;;6.20;5.28;;;17.60;99.90;;;;;;5126768;27;20074;-41
2023/07/10 03:49:20;;;;;;;7.90;5.25;;;17.60;99.90;;;;;;5115321;27;20055;-41
2023/07/10 03:51:45;;;;;;;8.00;5.00;;;17.60;99.90;;;;;;5115481;27;20051;-42
2023/07/10 03:54:11;;;;;;;7.45;4.88;;;17.60;99.90;;;;;;5096972;27;20434;-41
2023/07/10 03:56:37;;;;;;;8.25;5.30;;;17.60;99.90;;;;;;5116105;27;20478;-41
2023/07/10 03:59:06;;;;;;;6.28;5.20;;;17.60;99.90;;;;;;5115801;27;20043;-41
2023/07/10 04:01:31;;;;;;;6.70;4.80;;;17.70;99.90;;;;;;5116433;27;20082;-41
2023/07/10 04:03:57;;;;;;;5.68;5.00;;;17.90;99.90;;;;;;5115625;27;20150;-41
2023/07/10 04:06:23;;;;;;;7.07;5.00;;;18.00;99.90;;;;;;5125342;27;20127;-42
2023/07/10 04:08:48;;;;;;;10.52;5.45;;;18.00;99.90;;;;;;5133666;27;20107;-42
2023/07/10 04:11:20;;;;;;;9.93;5.68;;;18.00;99.90;;;;;;5116172;27;20796;-43
2023/07/10 04:13:47;;;;;;;14.38;6.60;;;18.00;99.90;;;;;;5115316;27;20140;-41
2023/07/10 04:16:21;;;;;;;8.20;5.22;;;18.00;99.90;;;;;;5115753;27;20531;-44
2023/07/10 04:18:49;;;;;;;11.00;6.50;;;18.00;99.90;;;;;;5114605;27;20055;-41
2023/07/10 04:21:21;;;;;;;8.90;6.20;;;18.00;99.90;;;;;;5115369;27;20419;-40
2023/07/10 04:23:47;;;;;;;7.22;5.30;;;18.10;99.90;;;;;;5114775;27;20047;-41
2023/07/10 04:26:22;;;;;;;7.88;4.97;;;18.10;99.90;;;;;;5115685;27;20082;-44
2023/07/10 04:28:50;;;;;;;8.48;5.22;;;18.10;99.90;;;;;;5115269;27;20527;-41
2023/07/10 04:31:17;;;;;;;8.48;4.40;;;18.20;99.90;;;;;;5114367;27;20426;-41
2023/07/10 04:33:43;;;;;;;7.43;4.05;;;18.20;99.90;;;;;;5096416;27;20768;-41
2023/07/10 04:36:08;;;;;;;5.72;3.90;;;18.20;99.90;;;;;;5106025;27;20090;-42
2023/07/10 04:38:34;;;;;;;9.23;3.75;;;18.20;99.90;;;;;;5119373;27;20058;-41
2023/07/10 04:41:02;;;;;;;6.32;4.82;;;18.20;99.90;;;;;;5135920;27;20519;-42
2023/07/10 04:43:30;;;;;;;7.38;4.10;;;18.20;99.90;;;;;;5119394;27;20043;-41
2023/07/10 04:45:57;;;;;;;6.13;3.65;;;18.20;99.90;;;;;;5129252;27;20526;-42
2023/07/10 04:48:24;;;;;;;8.40;4.10;;;18.20;99.90;;;;;;5136088;27;20145;-42
2023/07/10 04:50:51;;;;;;;8.38;3.88;;;18.20;99.90;;;;;;5136263;27;20043;-41
2023/07/10 04:53:17;;;;;;;9.13;3.63;;;18.20;99.90;;;;;;5135817;27;20053;-42
2023/07/10 04:55:44;;;;;;;9.70;4.50;;;18.20;99.90;;;;;;5135997;27;20034;-42
2023/07/10 04:58:10;;;;;;;6.15;3.10;;;18.30;99.90;;;;;;5100722;27;20127;-41
2023/07/10 05:00:37;;;;;;;9.55;4.88;;;18.40;99.90;;;;;;5136178;27;20216;-42
2023/07/10 05:03:04;;;;;;;8.27;3.83;;;18.50;99.90;;;;;;5136055;27;20042;-42
2023/07/10 05:05:30;;;;;;;8.90;4.65;;;18.50;99.90;;;;;;5116900;27;20119;-41
2023/07/10 05:07:56;;;;;;;8.15;3.50;;;18.70;99.90;;;;;;5116462;27;20130;-41
2023/07/10 05:10:22;;;;;;;10.63;4.07;;;19.00;99.90;;;;;;5135515;27;20039;-41
2023/07/10 05:12:48;;;;;;;8.90;3.85;;;19.20;99.90;;;;;;5135851;27;20089;-45
2023/07/10 05:15:14;;;;;;;12.32;4.85;;;19.40;99.90;;;;;;5134227;27;20054;-42
2023/07/10 05:17:40;;;;;;;7.07;4.20;;;19.50;99.90;;;;;;5122993;27;20055;-42
2023/07/10 05:20:07;;;;;;;8.20;4.38;;;19.40;99.90;;;;;;5113567;27;20878;-41
2023/07/10 05:22:32;;;;;;;7.72;4.00;;;19.50;99.90;;;;;;5114675;27;20047;-41
2023/07/10 05:24:58;;;;;;;8.30;4.35;;;19.50;99.90;;;;;;5112923;27;20827;-42
2023/07/10 05:27:24;;;;;;;8.57;3.67;;;19.60;99.90;;;;;;5114688;27;20636;-44
2023/07/10 05:29:49;;;;;;;7.32;3.85;;;19.80;99.90;;;;;;5114610;27;20050;-41
2023/07/10 05:32:15;;;;;;;7.60;3.88;;;19.90;99.90;;;;;;5115023;27;20135;-42
2023/07/10 05:34:42;;;;;;;5.72;4.15;;;20.20;99.90;;;;;;5108208;27;20039;-42
2023/07/10 05:37:07;;;;;;;9.00;3.53;;;21.10;99.90;;;;;;5112493;27;20039;-46
2023/07/10 05:39:33;;;;;;;8.63;4.35;;;21.60;99.90;;;;;;5123868;27;20046;-45
2023/07/10 05:41:59;;;;;;;7.15;3.67;;;22.40;99.90;;;;;;5116438;27;20385;-41
2023/07/10 05:44:25;;;;;;;8.02;3.70;;;23.00;99.90;;;;;;5103879;27;20443;-43
2023/07/10 05:46:51;;;;;;;11.43;3.90;;;24.20;99.90;;;;;;5100075;27;20142;-42
2023/07/10 05:49:18;;;;;;;10.02;3.92;;;24.60;99.90;;;;;;5118070;27;20051;-42
2023/07/10 05:51:44;;;;;;;11.90;3.95;;;25.20;99.90;;;;;;5118615;27;20050;-42
2023/07/10 05:54:10;;;;;;;7.82;3.70;;;25.60;99.90;;;;;;5117277;27;20050;-41
2023/07/10 05:56:35;;;;;;;8.55;3.50;;;26.20;99.90;;;;;;5119076;27;20235;-43
2023/07/10 05:59:01;;;;;;;9.27;4.80;;;26.80;99.90;;;;;;5117735;27;20051;-42
2023/07/10 06:01:27;;;;;;;9.77;3.60;;;27.70;99.90;;;;;;5100137;27;20042;-44
2023/07/10 06:03:53;;;;;;;5.63;2.70;;;28.50;99.90;;;;;;5118651;27;20049;-45
2023/07/10 06:06:19;;;;;;;6.30;2.67;;;29.20;99.90;;;;;;5118164;27;20039;-42
2023/07/10 06:08:44;;;;;;;7.60;3.10;;;29.60;99.90;;;;;;5117561;27;20051;-41
2023/07/10 06:11:10;;;;;;;5.72;2.92;;;29.80;99.90;;;;;;5117706;27;20054;-43
2023/07/10 06:13:36;;;;;;;7.97;3.55;;;30.00;99.90;;;;;;5117663;27;20044;-44
2023/07/10 06:16:06;;;;;;;7.35;3.10;;;30.00;99.50;;;;;;5105115;27;20047;-43
2023/07/10 06:18:32;;;;;;;8.80;2.85;;;30.30;99.20;;;;;;5102425;27;20054;-44
2023/07/10 06:20:59;;;;;;;7.78;3.35;;;30.90;98.10;;;;;;5081169;27;20046;-44
2023/07/10 06:23:27;;;;;;;6.15;3.20;;;30.90;98.30;;;;;;5103870;27;20051;-42
2023/07/10 06:25:53;;;;;;;7.68;2.85;;;31.00;97.60;;;;;;5084564;28;20043;-42
2023/07/10 06:28:20;;;;;;;7.85;3.15;;;30.90;97.20;;;;;;5104794;27;20150;-42
2023/07/10 06:31:01;;;;;;;9.20;3.05;;;31.70;96.90;;;;;;5109661;27;20047;-45
2023/07/10 06:33:28;;;;;;;5.68;2.65;;;32.10;96.40;;;;;;5103237;27;20050;-42
2023/07/10 06:35:54;;;;;;;6.68;3.03;;;32.40;96.40;;;;;;5109005;27;20046;-44
2023/07/10 06:38:21;;;;;;;5.95;2.72;;;32.30;96.30;;;;;;5099605;27;20047;-44
2023/07/10 06:40:51;;;;;;;8.00;2.65;;;33.00;94.60;;;;;;5118957;27;20948;-41
2023/07/10 06:43:18;;;;;;;8.25;3.28;;;32.50;94.70;;;;;;5114825;27;20520;-46
2023/07/10 06:45:44;;;;;;;7.75;3.45;;;32.50;95.00;;;;;;5131031;27;20142;-42
2023/07/10 06:48:10;;;;;;;6.88;3.40;;;32.60;95.30;;;;;;5117977;27;20062;-43
2023/07/10 06:50:36;;;;;;;8.43;3.40;;;32.30;94.40;;;;;;5138129;27;20054;-43
2023/07/10 06:53:02;;;;;;;12.50;3.35;;;32.50;95.60;;;;;;5135542;27;20396;-47
2023/07/10 06:55:28;;;;;;;7.10;3.15;;;32.50;94.40;;;;;;5138098;27;20533;-45
2023/07/10 06:57:54;;;;;;;7.15;2.90;;;32.70;94.90;;;;;;5123630;27;20496;-46
2023/07/10 07:00:20;;;;;;;6.35;3.20;;;32.50;94.70;;;;;;5137770;27;20042;-47
2023/07/10 07:02:45;;;;;;;8.43;3.75;;;32.50;94.30;;;;;;5137477;27;20050;-42
2023/07/10 07:05:11;;;;;;;8.93;3.17;;;32.30;94.30;;;;;;5123240;27;20090;-44
2023/07/10 07:07:39;;;;;;;9.32;3.58;;;32.60;94.10;;;;;;5096691;27;20051;-47
2023/07/10 07:10:07;;;;;;;7.90;3.38;;;32.00;93.30;;;;;;5116914;27;20047;-45
2023/07/10 07:12:32;;;;;;;8.95;3.53;;;32.30;95.20;;;;;;5117059;27;20058;-46
2023/07/10 07:14:58;;;;;;;8.18;3.20;;;32.20;94.80;;;;;;5097868;27;20047;-45
2023/07/10 07:17:24;;;;;;;7.10;3.65;;;32.50;94.80;;;;;;5134982;27;20046;-43
2023/07/10 07:19:50;;;;;;;8.75;3.80;;;32.60;94.40;;;;;;5136593;27;20049;-44
2023/07/10 07:22:16;;;;;;;7.07;3.42;;;32.60;94.40;;;;;;5136478;27;20042;-44
2023/07/10 07:24:41;;;;;;;8.02;3.20;;;32.10;94.60;;;;;;5137345;27;20122;-43
2023/07/10 07:27:07;;;;;;;8.50;3.38;;;32.20;95.50;;;;;;5138025;27;20470;-43
2023/07/10 07:29:33;;;;;;;6.80;3.55;;;31.20;95.60;;;;;;5117655;27;20653;-42
2023/07/10 07:31:59;;;;;;;11.93;3.42;;;30.60;95.40;;;;;;5127028;27;20046;-43
2023/07/10 07:34:25;;;;;;;9.52;3.38;;;30.00;97.20;;;;;;5116336;27;20532;-41
2023/07/10 07:36:51;;;;;;;11.63;3.72;;;29.50;96.90;;;;;;5113890;27;20524;-42
2023/07/10 07:39:20;;;;;;;13.25;3.83;;;29.10;98.30;;;;;;5114596;27;20062;-44
2023/07/10 07:41:46;;;;;;;13.80;4.25;;;28.90;97.70;;;;;;5117334;27;20089;-41
2023/07/10 07:44:12;;;;;;;11.95;3.72;;;28.90;98.60;;;;;;5114339;27;20051;-42
2023/07/10 07:46:37;;;;;;;14.00;4.07;;;28.70;99.10;;;;;;5115889;27;20594;-41
2023/07/10 07:49:03;;;;;;;12.00;3.85;;;28.50;99.40;;;;;;5115029;27;20093;-46
2023/07/10 07:51:29;;;;;;;10.73;3.80;;;28.40;99.60;;;;;;5115549;27;20092;-43
2023/07/10 07:54:04;;;;;;;10.00;3.90;;;28.80;99.90;;;;;;5115406;27;20039;-42
2023/07/10 07:56:29;;;;;;;8.35;3.40;;;28.50;98.90;;;;;;5095200;27;20468;-41
2023/07/10 07:58:55;;;;;;;10.20;3.58;;;28.30;99.50;;;;;;5115556;27;20142;-41
2023/07/10 08:01:21;;;;;;;12.15;4.60;;;28.00;99.60;;;;;;5116304;27;20078;-41
2023/07/10 08:03:46;;;;;;;10.82;4.03;;;28.10;99.90;;;;;;5114945;27;20309;-41
2023/07/10 08:06:12;;;;;;;9.05;4.60;;;28.00;99.90;;;;;;5113612;27;20395;-42
2023/07/10 08:08:38;;;;;;;9.90;3.80;;;27.60;99.90;;;;;;5115326;27;20588;-46
2023/07/10 08:11:05;;;;;;;9.88;4.10;;;27.40;99.90;;;;;;5096796;27;20412;-45
2023/07/10 08:13:31;;;;;;;12.18;4.65;;;27.20;99.90;;;;;;5115213;27;20053;-42
2023/07/10 08:15:57;;;;;;;10.85;4.07;;;27.40;99.90;;;;;;5115885;27;20047;-42
2023/07/10 08:18:22;;;;;;;9.73;3.70;;;27.50;99.90;;;;;;5115605;27;20089;-41
2023/07/10 08:20:48;;;;;;;11.07;3.75;;;27.20;99.90;;;;;;5115885;27;20504;-43
2023/07/10 08:23:16;;;;;;;13.85;4.72;;;27.30;99.90;;;;;;5114013;27;20055;-42
2023/07/10 08:25:41;;;;;;;11.15;4.07;;;27.40;99.90;;;;;;5112480;27;20031;-42
2023/07/10 08:28:07;;;;;;;12.65;3.90;;;27.20;99.90;;;;;;5114478;27;20401;-44
2023/07/10 08:30:33;;;;;;;10.63;4.15;;;27.30;99.90;;;;;;5115227;27;20127;-43
2023/07/10 08:32:58;;;;;;;9.98;4.47;;;27.30;99.90;;;;;;5113190;27;20725;-41
2023/07/10 08:35:24;;;;;;;11.98;4.47;;;27.30;99.90;;;;;;5106204;27;20047;-42
2023/07/10 08:37:50;;;;;;;11.70;5.03;;;27.20;99.90;;;;;;5112392;27;20081;-42
2023/07/10 08:40:25;;;;;;;10.65;4.82;;;26.90;99.90;;;;;;5130668;27;20118;-42
2023/07/10 08:42:50;;;;;;;10.30;4.20;;;26.90;99.90;;;;;;5085718;27;20065;-41
2023/07/10 08:45:31;;;;;;;13.13;5.35;;;26.80;99.90;;;;;;5120336;27;20595;-45
2023/07/10 08:48:08;;;;;;;12.05;4.40;;;26.40;99.90;;;;;;5114504;27;20585;-43
2023/07/10 08:50:34;;;;;;;15.35;4.63;;;26.50;99.90;;;;;;5093203;27;20054;-45
2023/07/10 08:53:09;;;;;;;13.25;4.32;;;26.40;99.90;;;;;;5103403;27;20371;-41
2023/07/10 08:56:12;;;;;;;9.63;4.40;;;26.50;99.90;;;;;;5109710;27;20488;-42
2023/07/10 08:58:38;;;;;;;12.55;4.45;;;26.50;99.90;;;;;;5118618;27;20482;-43
2023/07/10 09:01:17;;;;;;;12.57;5.05;;;26.40;99.90;;;;;;5108237;27;20037;-42
2023/07/10 09:03:49;;;;;;;12.40;4.72;;;26.50;99.90;;;;;;5101169;27;20341;-42
2023/07/10 09:06:46;;;;;;;13.23;4.78;;;26.50;99.90;;;;;;5135592;27;20039;-42
2023/07/10 09:09:36;;;;;;;15.68;4.85;;;26.50;99.90;;;;;;5119958;27;20053;-41
2023/07/10 09:12:11;;;;;;;13.48;4.65;;;26.90;99.90;;;;;;5112779;27;20334;-41
2023/07/10 09:14:46;;;;;;;13.45;4.93;;;27.20;99.90;;;;;;5099420;27;20039;-41
2023/07/10 09:17:50;;;;;;;11.77;4.55;;;27.30;99.90;;;;;;5117987;27;20047;-41
2023/07/10 09:20:16;;;;;;;13.15;5.03;;;27.30;99.90;;;;;;5137641;27;20046;-41
2023/07/10 09:22:53;;;;;;;13.18;4.55;;;27.40;99.90;;;;;;5140209;27;20043;-41
2023/07/10 09:25:21;;;;;;;11.27;3.97;;;27.40;99.90;;;;;;5122467;27;20480;-43
2023/07/10 09:27:48;;;;;;;15.05;4.90;;;27.50;99.90;;;;;;5141482;27;20047;-44
2023/07/10 09:30:43;;;;;;;8.80;4.18;;;27.60;99.90;;;;;;5142550;27;20161;-42
2023/07/10 09:33:10;;;;;;;11.35;4.68;;;27.60;99.90;;;;;;5140861;27;20627;-42
2023/07/10 09:35:40;;;;;;;11.80;4.28;;;27.20;99.90;;;;;;5116822;27;20381;-41
2023/07/10 09:38:08;;;;;;;10.90;4.38;;;27.40;99.90;;;;;;5114955;27;20397;-42
2023/07/10 09:40:46;;;;;;;10.82;4.55;;;27.30;99.90;;;;;;5121699;27;20096;-43
2023/07/10 09:43:21;;;;;;;12.50;4.18;;;27.20;99.90;;;;;;5113786;27;20036;-46
2023/07/10 09:45:52;;;;;;;13.10;5.03;;;26.90;99.90;;;;;;5111914;27;20047;-41
2023/07/10 09:48:34;;;;;;;11.38;4.18;;;26.90;99.90;;;;;;5118009;27;20531;-40
2023/07/10 09:51:06;;;;;;;15.02;5.07;;;26.90;99.90;;;;;;5119925;27;20038;-41
2023/07/10 09:53:46;;;;;;;13.77;4.05;;;26.90;99.90;;;;;;5107281;27;20174;-44
2023/07/10 09:56:25;;;;;;;13.77;5.05;;;26.80;99.90;;;;;;5111850;27;20239;-43
2023/07/10 09:58:56;;;;;;;12.18;4.57;;;26.60;99.90;;;;;;5092910;27;20035;-40
2023/07/10 10:01:30;;;;;;;12.98;4.70;;;26.40;99.90;;;;;;5107581;27;20063;-42
2023/07/10 10:03:56;;;;;;;15.68;4.60;;;26.30;99.90;;;;;;5111952;27;20046;-39
2023/07/10 10:06:25;;;;;;;14.15;5.57;;;26.10;99.90;;;;;;5100258;27;20510;-40
2023/07/10 10:08:51;;;;;;;10.98;4.00;;;25.70;99.90;;;;;;5106404;27;20054;-42
2023/07/10 10:11:18;;;;;;;11.43;4.50;;;25.60;99.90;;;;;;5110570;27;20154;-41
2023/07/10 10:13:56;;;;;;;16.20;4.00;;;25.60;99.90;;;;;;5097440;27;20249;-43
2023/07/10 10:16:43;;;;;;;14.73;4.68;;;25.70;99.90;;;;;;5110138;27;20473;-42
2023/07/10 10:19:23;;;;;;;10.88;3.80;;;25.50;99.90;;;;;;5109814;27;20063;-44
2023/07/10 10:21:49;;;;;;;13.20;3.80;;;25.60;99.90;;;;;;5109789;27;20056;-41
2023/07/10 10:24:15;;;;;;;14.85;3.65;;;25.90;99.90;;;;;;5118846;27;20057;-43
2023/07/10 10:26:43;;;;;;;8.88;3.08;;;26.10;99.90;;;;;;5121690;27;20039;-41
2023/07/10 10:29:43;;;;;;;11.63;3.67;;;26.20;99.90;;;;;;5117822;27;20058;-41
2023/07/10 10:32:33;;;;;;;10.75;3.22;;;26.40;99.90;;;;;;5118244;27;20336;-41
2023/07/10 10:35:13;;;;;;;7.85;3.50;;;26.50;99.90;;;;;;5092809;27;20049;-42
2023/07/10 10:37:57;;;;;;;10.93;3.70;;;26.60;99.90;;;;;;5105149;27;20055;-44
2023/07/10 10:40:23;;;;;;;11.35;4.22;;;26.50;99.90;;;;;;5086670;27;20063;-42
2023/07/10 10:43:24;;;;;;;10.27;3.50;;;26.50;99.90;;;;;;5085572;27;20417;-44
2023/07/10 10:45:58;;;;;;;16.00;3.60;;;26.70;99.90;;;;;;5010608;28;20049;-42
2023/07/10 10:48:26;;;;;;;14.10;3.95;;;26.90;99.90;;;;;;5002026;28;20065;-44
2023/07/10 10:50:57;;;;;;;10.77;3.83;;;27.10;99.90;;;;;;5017946;28;20041;-43
2023/07/10 10:53:33;;;;;;;9.25;3.53;;;27.20;99.90;;;;;;5020744;28;20083;-43
2023/07/10 10:56:26;;;;;;;11.68;4.00;;;27.20;99.90;;;;;;5020917;28;20048;-43
2023/07/10 10:58:55;;;;;;;13.52;3.47;;;27.00;99.90;;;;;;5018715;28;20136;-41
2023/07/10 11:01:32;;;;;;;12.90;4.10;;;26.60;99.90;;;;;;5010603;28;20056;-43
2023/07/10 11:04:10;;;;;;;9.07;3.60;;;26.30;99.90;;;;;;5024063;28;20160;-46
2023/07/10 11:06:41;;;;;;;11.95;4.00;;;26.00;99.90;;;;;;5023246;28;20535;-40
2023/07/10 11:09:17;;;;;;;11.70;3.90;;;26.00;99.90;;;;;;5019108;28;20057;-42
2023/07/10 11:11:43;;;;;;;10.27;3.15;;;25.90;99.90;;;;;;5032575;28;20479;-41
2023/07/10 11:14:11;;;;;;;12.73;4.07;;;25.90;99.90;;;;;;5024417;28;20479;-44
2023/07/10 11:16:37;;;;;;;9.82;3.38;;;25.90;99.90;;;;;;5015179;28;20076;-43
2023/07/10 11:19:05;;;;;;;9.45;3.35;;;25.80;99.90;;;;;;5043511;28;20078;-41
2023/07/10 11:21:32;;;;;;;12.80;3.47;;;25.90;99.90;;;;;;5127834;27;20141;-42
2023/07/10 11:24:11;;;;;;;12.07;3.38;;;26.30;99.90;;;;;;5136707;27;20154;-42
2023/07/10 11:26:37;;;;;;;10.25;3.15;;;26.40;99.90;;;;;;5135343;27;20051;-41
2023/07/10 11:29:35;;;;;;;9.77;3.05;;;26.50;99.90;;;;;;5135010;27;20548;-42
2023/07/10 11:32:08;;;;;;;10.30;3.28;;;26.30;99.40;;;;;;5118063;27;20493;-42
2023/07/10 11:34:38;;;;;;;8.27;2.88;;;26.30;99.50;;;;;;5123778;27;20083;-41
2023/07/10 11:37:03;;;;;;;10.18;3.00;;;26.10;98.30;;;;;;5094087;27;20047;-43
2023/07/10 11:39:40;;;;;;;11.57;3.33;;;26.10;98.70;;;;;;5087791;27;20108;-42
2023/07/10 11:42:17;;;;;;;6.00;2.05;;;26.30;99.00;;;;;;5093180;27;20052;-41
2023/07/10 11:44:52;;;;;;;9.80;2.92;;;26.30;96.60;;;;;;5095972;27;20054;-41
2023/07/10 11:47:21;;;;;;;8.68;2.70;;;26.20;96.60;;;;;;5095760;27;20160;-40
2023/07/10 11:49:50;;;;;;;9.57;2.55;;;26.20;96.80;;;;;;5100289;27;20138;-41
2023/07/10 11:52:16;;;;;;;15.30;3.17;;;26.50;99.10;;;;;;5096601;27;20113;-41
2023/07/10 11:54:48;;;;;;;6.68;2.35;;;26.50;98.20;;;;;;5097944;27;20184;-41
2023/07/10 11:57:28;;;;;;;11.27;2.45;;;26.50;97.40;;;;;;5119941;27;20058;-43
2023/07/10 11:59:58;;;;;;;11.60;3.47;;;26.40;98.90;;;;;;5115914;27;20400;-44
2023/07/10 12:02:37;;;;;;;6.55;2.65;;;26.40;97.60;;;;;;5115329;27;20049;-42
2023/07/10 12:05:23;;;;;;;12.52;2.72;;;26.40;98.10;;;;;;5096530;27;20517;-43
2023/07/10 12:08:06;;;;;;;8.63;2.60;;;26.30;97.50;;;;;;5111738;27;20059;-42
2023/07/10 12:10:37;;;;;;;6.88;2.40;;;26.20;97.00;;;;;;5078153;28;20047;-42
2023/07/10 12:13:27;;;;;;;8.05;2.40;;;26.20;98.20;;;;;;5062191;28;20403;-41
2023/07/10 12:15:54;;;;;;;6.15;2.22;;;26.30;97.50;;;;;;5109538;27;20039;-41
2023/07/10 12:18:32;;;;;;;10.77;2.45;;;26.40;96.90;;;;;;5095338;27;20044;-43
2023/07/10 12:21:01;;;;;;;8.98;2.47;;;26.40;97.70;;;;;;5096337;27;20048;-41
2023/07/10 12:23:27;;;;;;;7.95;2.70;;;26.60;98.00;;;;;;5100774;27;20043;-43
2023/07/10 12:25:55;;;;;;;7.63;2.30;;;26.70;98.60;;;;;;5079162;28;20421;-41
2023/07/10 12:28:24;;;;;;;9.02;2.78;;;26.60;98.00;;;;;;5076893;28;20144;-43
2023/07/10 12:30:51;;;;;;;8.02;2.40;;;26.50;98.00;;;;;;5096515;27;20406;-41
2023/07/10 12:33:37;;;;;;;7.65;2.65;;;26.40;97.40;;;;;;5095466;27;20408;-41
2023/07/10 12:36:22;;;;;;;8.07;2.50;;;26.40;97.30;;;;;;5087279;27;20122;-42
2023/07/10 12:38:48;;;;;;;6.07;2.42;;;26.30;96.40;;;;;;5121617;27;20095;-41
2023/07/10 12:41:13;;;;;;;7.70;2.10;;;26.20;96.70;;;;;;5117510;27;20126;-42
2023/07/10 12:43:47;;;;;;;10.05;2.78;;;26.30;98.00;;;;;;5116803;27;20493;-42
2023/07/10 12:46:16;;;;;;;7.07;2.17;;;26.40;98.60;;;;;;5112216;27;20058;-41
2023/07/10 12:48:42;;;;;;;7.32;2.40;;;26.40;97.00;;;;;;5097124;27;20043;-42